sensor_id;sensor_type;location;lat;lon;timestamp;temperature;humidity
71188;DHT22;58893;53.130;8.158;2022-12-10T00:01:09;4.10;78.50
71188;DHT22;58893;53.130;8.158;2022-12-10T00:03:35;4.10;79.10
71188;DHT22;58893;53.130;8.158;2022-12-10T00:06:02;4.10;78.50
71188;DHT22;58893;53.130;8.158;2022-12-10T00:08:28;4.10;77.30
71188;DHT22;58893;53.130;8.158;2022-12-10T00:10:54;4.10;77.30
71188;DHT22;58893;53.130;8.158;2022-12-10T00:13:19;4.10;77.30
71188;DHT22;58893;53.130;8.158;2022-12-10T00:15:45;4.10;77.20
71188;DHT22;58893;53.130;8.158;2022-12-10T00:18:10;4.10;77.30
71188;DHT22;58893;53.130;8.158;2022-12-10T00:20:37;4.10;77.90
71188;DHT22;58893;53.130;8.158;2022-12-10T00:23:03;4.10;76.70
71188;DHT22;58893;53.130;8.158;2022-12-10T00:25:29;4.00;76.60
71188;DHT22;58893;53.130;8.158;2022-12-10T00:27:55;4.00;77.70
71188;DHT22;58893;53.130;8.158;2022-12-10T00:30:20;4.00;76.40
71188;DHT22;58893;53.130;8.158;2022-12-10T00:32:46;4.00;76.30
71188;DHT22;58893;53.130;8.158;2022-12-10T00:35:12;4.00;76.70
71188;DHT22;58893;53.130;8.158;2022-12-10T00:37:37;4.00;76.40
71188;DHT22;58893;53.130;8.158;2022-12-10T00:40:03;3.90;76.40
71188;DHT22;58893;53.130;8.158;2022-12-10T00:42:30;3.90;76.30
71188;DHT22;58893;53.130;8.158;2022-12-10T00:44:55;3.90;76.30
71188;DHT22;58893;53.130;8.158;2022-12-10T00:47:21;3.90;76.30
71188;DHT22;58893;53.130;8.158;2022-12-10T00:49:47;3.90;76.30
71188;DHT22;58893;53.130;8.158;2022-12-10T00:52:12;3.80;76.20
71188;DHT22;58893;53.130;8.158;2022-12-10T00:54:38;3.80;77.50
71188;DHT22;58893;53.130;8.158;2022-12-10T00:57:03;3.80;75.10
71188;DHT22;58893;53.130;8.158;2022-12-10T00:59:29;3.80;75.20
71188;DHT22;58893;53.130;8.158;2022-12-10T01:01:55;3.80;75.30
71188;DHT22;58893;53.130;8.158;2022-12-10T01:04:20;3.80;75.30
71188;DHT22;58893;53.130;8.158;2022-12-10T01:06:48;3.80;75.30
71188;DHT22;58893;53.130;8.158;2022-12-10T01:09:17;3.80;75.20
71188;DHT22;58893;53.130;8.158;2022-12-10T01:11:45;3.80;75.00
71188;DHT22;58893;53.130;8.158;2022-12-10T01:14:14;3.70;74.80
71188;DHT22;58893;53.130;8.158;2022-12-10T01:16:42;3.70;74.70
71188;DHT22;58893;53.130;8.158;2022-12-10T01:19:08;3.70;74.60
71188;DHT22;58893;53.130;8.158;2022-12-10T01:21:34;3.70;74.60
71188;DHT22;58893;53.130;8.158;2022-12-10T01:24:00;3.70;74.60
71188;DHT22;58893;53.130;8.158;2022-12-10T01:26:27;3.60;74.40
71188;DHT22;58893;53.130;8.158;2022-12-10T01:28:54;3.60;74.40
71188;DHT22;58893;53.130;8.158;2022-12-10T01:33:50;3.60;74.10
71188;DHT22;58893;53.130;8.158;2022-12-10T01:36:26;3.50;73.80
71188;DHT22;58893;53.130;8.158;2022-12-10T01:38:52;3.50;73.80
71188;DHT22;58893;53.130;8.158;2022-12-10T01:41:22;3.50;76.20
71188;DHT22;58893;53.130;8.158;2022-12-10T01:46:17;3.50;74.20
71188;DHT22;58893;53.130;8.158;2022-12-10T01:48:43;3.50;74.20
71188;DHT22;58893;53.130;8.158;2022-12-10T01:51:10;3.50;74.30
71188;DHT22;58893;53.130;8.158;2022-12-10T01:53:37;3.50;74.70
71188;DHT22;58893;53.130;8.158;2022-12-10T01:56:02;3.50;75.00
71188;DHT22;58893;53.130;8.158;2022-12-10T01:58:28;3.50;75.30
71188;DHT22;58893;53.130;8.158;2022-12-10T02:01:04;3.50;75.50
71188;DHT22;58893;53.130;8.158;2022-12-10T02:03:38;3.50;75.70
71188;DHT22;58893;53.130;8.158;2022-12-10T02:09:18;3.50;76.90
71188;DHT22;58893;53.130;8.158;2022-12-10T02:14:55;3.50;77.30
71188;DHT22;58893;53.130;8.158;2022-12-10T02:22:31;3.50;77.90
71188;DHT22;58893;53.130;8.158;2022-12-10T02:25:00;3.60;75.30
71188;DHT22;58893;53.130;8.158;2022-12-10T02:30:05;3.60;75.00
71188;DHT22;58893;53.130;8.158;2022-12-10T02:32:37;3.60;74.90
71188;DHT22;58893;53.130;8.158;2022-12-10T02:35:09;3.60;75.20
71188;DHT22;58893;53.130;8.158;2022-12-10T02:37:43;3.60;75.30
71188;DHT22;58893;53.130;8.158;2022-12-10T02:40:16;3.60;75.40
71188;DHT22;58893;53.130;8.158;2022-12-10T02:42:44;3.60;76.30
71188;DHT22;58893;53.130;8.158;2022-12-10T02:45:12;3.60;75.90
71188;DHT22;58893;53.130;8.158;2022-12-10T02:47:39;3.60;75.90
71188;DHT22;58893;53.130;8.158;2022-12-10T02:50:06;3.70;76.00
71188;DHT22;58893;53.130;8.158;2022-12-10T02:52:32;3.70;76.00
71188;DHT22;58893;53.130;8.158;2022-12-10T02:54:58;3.70;76.00
71188;DHT22;58893;53.130;8.158;2022-12-10T02:57:32;3.70;76.10
71188;DHT22;58893;53.130;8.158;2022-12-10T03:05:59;3.80;76.00
71188;DHT22;58893;53.130;8.158;2022-12-10T03:08:38;3.80;75.80
71188;DHT22;58893;53.130;8.158;2022-12-10T03:14:09;3.80;75.70
71188;DHT22;58893;53.130;8.158;2022-12-10T03:16:48;3.80;75.50
71188;DHT22;58893;53.130;8.158;2022-12-10T03:19:18;3.80;75.30
71188;DHT22;58893;53.130;8.158;2022-12-10T03:21:47;3.80;75.20
71188;DHT22;58893;53.130;8.158;2022-12-10T03:24:13;3.80;75.00
71188;DHT22;58893;53.130;8.158;2022-12-10T03:26:41;3.80;75.00
71188;DHT22;58893;53.130;8.158;2022-12-10T03:29:22;3.80;74.90
71188;DHT22;58893;53.130;8.158;2022-12-10T03:31:50;3.80;74.80
71188;DHT22;58893;53.130;8.158;2022-12-10T03:34:17;3.70;74.50
71188;DHT22;58893;53.130;8.158;2022-12-10T03:36:44;3.70;74.40
71188;DHT22;58893;53.130;8.158;2022-12-10T03:39:10;3.70;74.30
71188;DHT22;58893;53.130;8.158;2022-12-10T03:41:36;3.70;74.20
71188;DHT22;58893;53.130;8.158;2022-12-10T03:44:02;3.70;74.10
71188;DHT22;58893;53.130;8.158;2022-12-10T03:46:29;3.70;73.90
71188;DHT22;58893;53.130;8.158;2022-12-10T03:48:56;3.70;73.80
71188;DHT22;58893;53.130;8.158;2022-12-10T03:51:22;3.70;73.70
71188;DHT22;58893;53.130;8.158;2022-12-10T03:53:48;3.70;73.60
71188;DHT22;58893;53.130;8.158;2022-12-10T03:56:15;3.60;73.50
71188;DHT22;58893;53.130;8.158;2022-12-10T03:58:41;3.60;73.50
71188;DHT22;58893;53.130;8.158;2022-12-10T04:01:07;3.60;73.40
71188;DHT22;58893;53.130;8.158;2022-12-10T04:03:37;3.60;73.20
71188;DHT22;58893;53.130;8.158;2022-12-10T04:06:09;3.60;73.20
71188;DHT22;58893;53.130;8.158;2022-12-10T04:08:35;3.60;73.10
71188;DHT22;58893;53.130;8.158;2022-12-10T04:11:06;3.60;73.00
71188;DHT22;58893;53.130;8.158;2022-12-10T04:13:33;3.50;73.00
71188;DHT22;58893;53.130;8.158;2022-12-10T04:16:17;3.50;72.90
71188;DHT22;58893;53.130;8.158;2022-12-10T04:18:57;3.50;73.00
71188;DHT22;58893;53.130;8.158;2022-12-10T04:21:23;3.50;73.00
71188;DHT22;58893;53.130;8.158;2022-12-10T04:24:09;3.50;73.10
71188;DHT22;58893;53.130;8.158;2022-12-10T04:26:55;3.50;73.10
71188;DHT22;58893;53.130;8.158;2022-12-10T04:29:24;3.50;73.00
71188;DHT22;58893;53.130;8.158;2022-12-10T04:31:50;3.50;72.90
71188;DHT22;58893;53.130;8.158;2022-12-10T04:34:16;3.40;72.60
71188;DHT22;58893;53.130;8.158;2022-12-10T04:36:42;3.40;72.40
71188;DHT22;58893;53.130;8.158;2022-12-10T04:39:07;3.40;72.30
71188;DHT22;58893;53.130;8.158;2022-12-10T04:41:33;3.40;72.20
71188;DHT22;58893;53.130;8.158;2022-12-10T04:43:59;3.40;72.10
71188;DHT22;58893;53.130;8.158;2022-12-10T04:46:24;3.40;72.10
71188;DHT22;58893;53.130;8.158;2022-12-10T04:48:50;3.40;72.00
71188;DHT22;58893;53.130;8.158;2022-12-10T04:51:15;3.30;71.90
71188;DHT22;58893;53.130;8.158;2022-12-10T04:53:41;3.30;72.00
71188;DHT22;58893;53.130;8.158;2022-12-10T04:56:06;3.30;72.00
71188;DHT22;58893;53.130;8.158;2022-12-10T04:58:32;3.30;72.70
71188;DHT22;58893;53.130;8.158;2022-12-10T05:01:07;3.30;72.10
71188;DHT22;58893;53.130;8.158;2022-12-10T05:03:33;3.30;72.20
71188;DHT22;58893;53.130;8.158;2022-12-10T05:06:04;3.20;72.10
71188;DHT22;58893;53.130;8.158;2022-12-10T05:08:30;3.20;72.10
71188;DHT22;58893;53.130;8.158;2022-12-10T05:11:01;3.20;72.10
71188;DHT22;58893;53.130;8.158;2022-12-10T05:13:27;3.20;72.00
71188;DHT22;58893;53.130;8.158;2022-12-10T05:15:53;3.20;72.00
71188;DHT22;58893;53.130;8.158;2022-12-10T05:18:19;3.20;71.90
71188;DHT22;58893;53.130;8.158;2022-12-10T05:20:44;3.10;71.70
71188;DHT22;58893;53.130;8.158;2022-12-10T05:23:10;3.10;71.90
71188;DHT22;58893;53.130;8.158;2022-12-10T05:28:36;3.10;71.70
71188;DHT22;58893;53.130;8.158;2022-12-10T05:31:03;3.10;71.70
71188;DHT22;58893;53.130;8.158;2022-12-10T05:33:29;3.10;71.90
71188;DHT22;58893;53.130;8.158;2022-12-10T05:36:00;3.00;74.10
71188;DHT22;58893;53.130;8.158;2022-12-10T05:38:27;3.00;72.50
71188;DHT22;58893;53.130;8.158;2022-12-10T05:40:53;3.00;71.50
71188;DHT22;58893;53.130;8.158;2022-12-10T05:43:19;3.00;71.30
71188;DHT22;58893;53.130;8.158;2022-12-10T05:45:45;3.00;71.40
71188;DHT22;58893;53.130;8.158;2022-12-10T05:48:14;3.00;71.40
71188;DHT22;58893;53.130;8.158;2022-12-10T05:50:40;3.00;71.10
71188;DHT22;58893;53.130;8.158;2022-12-10T05:53:05;3.00;71.00
71188;DHT22;58893;53.130;8.158;2022-12-10T05:55:31;3.00;71.10
71188;DHT22;58893;53.130;8.158;2022-12-10T05:57:59;2.90;71.50
71188;DHT22;58893;53.130;8.158;2022-12-10T06:00:25;3.00;71.20
71188;DHT22;58893;53.130;8.158;2022-12-10T06:02:51;3.00;72.40
71188;DHT22;58893;53.130;8.158;2022-12-10T06:05:16;3.00;72.50
71188;DHT22;58893;53.130;8.158;2022-12-10T06:07:42;3.00;73.60
71188;DHT22;58893;53.130;8.158;2022-12-10T06:10:08;3.00;71.60
71188;DHT22;58893;53.130;8.158;2022-12-10T06:12:34;3.00;71.70
71188;DHT22;58893;53.130;8.158;2022-12-10T06:15:00;3.00;71.90
71188;DHT22;58893;53.130;8.158;2022-12-10T06:17:25;3.00;72.00
71188;DHT22;58893;53.130;8.158;2022-12-10T06:19:51;3.00;71.80
71188;DHT22;58893;53.130;8.158;2022-12-10T06:22:17;3.00;71.90
71188;DHT22;58893;53.130;8.158;2022-12-10T06:24:42;3.00;72.10
71188;DHT22;58893;53.130;8.158;2022-12-10T06:27:08;3.00;72.30
71188;DHT22;58893;53.130;8.158;2022-12-10T06:29:33;3.00;72.50
71188;DHT22;58893;53.130;8.158;2022-12-10T06:31:59;3.10;72.20
71188;DHT22;58893;53.130;8.158;2022-12-10T06:34:25;3.10;72.50
71188;DHT22;58893;53.130;8.158;2022-12-10T06:36:50;3.10;73.20
71188;DHT22;58893;53.130;8.158;2022-12-10T06:39:16;3.10;71.90
71188;DHT22;58893;53.130;8.158;2022-12-10T06:41:41;3.20;71.70
71188;DHT22;58893;53.130;8.158;2022-12-10T06:44:09;3.20;71.80
71188;DHT22;58893;53.130;8.158;2022-12-10T06:46:35;3.10;71.80
71188;DHT22;58893;53.130;8.158;2022-12-10T06:49:02;3.20;72.00
71188;DHT22;58893;53.130;8.158;2022-12-10T06:51:28;3.10;72.00
71188;DHT22;58893;53.130;8.158;2022-12-10T06:53:53;3.20;72.30
71188;DHT22;58893;53.130;8.158;2022-12-10T06:56:19;3.20;73.00
71188;DHT22;58893;53.130;8.158;2022-12-10T06:58:46;3.20;72.30
71188;DHT22;58893;53.130;8.158;2022-12-10T07:01:22;3.20;72.30
71188;DHT22;58893;53.130;8.158;2022-12-10T07:03:52;3.20;72.30
71188;DHT22;58893;53.130;8.158;2022-12-10T07:06:18;3.20;72.30
71188;DHT22;58893;53.130;8.158;2022-12-10T07:08:45;3.20;72.10
71188;DHT22;58893;53.130;8.158;2022-12-10T07:11:13;3.20;72.10
71188;DHT22;58893;53.130;8.158;2022-12-10T07:13:39;3.20;72.10
71188;DHT22;58893;53.130;8.158;2022-12-10T07:16:25;3.20;72.10
71188;DHT22;58893;53.130;8.158;2022-12-10T07:18:51;3.20;72.30
71188;DHT22;58893;53.130;8.158;2022-12-10T07:21:20;3.20;72.30
71188;DHT22;58893;53.130;8.158;2022-12-10T07:23:47;3.20;72.50
71188;DHT22;58893;53.130;8.158;2022-12-10T07:26:13;3.20;72.70
71188;DHT22;58893;53.130;8.158;2022-12-10T07:28:39;3.20;72.70
71188;DHT22;58893;53.130;8.158;2022-12-10T07:31:07;3.20;72.80
71188;DHT22;58893;53.130;8.158;2022-12-10T07:33:34;3.30;73.40
71188;DHT22;58893;53.130;8.158;2022-12-10T07:36:08;3.30;73.10
71188;DHT22;58893;53.130;8.158;2022-12-10T07:38:34;3.40;72.90
71188;DHT22;58893;53.130;8.158;2022-12-10T07:41:11;3.40;72.70
71188;DHT22;58893;53.130;8.158;2022-12-10T07:43:38;3.40;72.50
71188;DHT22;58893;53.130;8.158;2022-12-10T07:46:25;3.40;72.50
71188;DHT22;58893;53.130;8.158;2022-12-10T07:48:51;3.40;72.50
71188;DHT22;58893;53.130;8.158;2022-12-10T07:51:18;3.40;72.60
71188;DHT22;58893;53.130;8.158;2022-12-10T07:53:45;3.40;72.70
71188;DHT22;58893;53.130;8.158;2022-12-10T07:56:11;3.40;73.50
71188;DHT22;58893;53.130;8.158;2022-12-10T07:58:37;3.40;72.80
71188;DHT22;58893;53.130;8.158;2022-12-10T08:01:11;3.40;73.30
71188;DHT22;58893;53.130;8.158;2022-12-10T08:03:37;3.40;72.60
71188;DHT22;58893;53.130;8.158;2022-12-10T08:06:14;3.40;72.70
71188;DHT22;58893;53.130;8.158;2022-12-10T08:08:40;3.40;73.90
71188;DHT22;58893;53.130;8.158;2022-12-10T08:11:06;3.40;72.90
71188;DHT22;58893;53.130;8.158;2022-12-10T08:13:33;3.40;72.50
71188;DHT22;58893;53.130;8.158;2022-12-10T08:16:17;3.50;72.70
71188;DHT22;58893;53.130;8.158;2022-12-10T08:18:44;3.50;72.70
71188;DHT22;58893;53.130;8.158;2022-12-10T08:21:15;3.50;72.80
71188;DHT22;58893;53.130;8.158;2022-12-10T08:23:42;3.50;72.80
71188;DHT22;58893;53.130;8.158;2022-12-10T08:26:11;3.50;73.30
71188;DHT22;58893;53.130;8.158;2022-12-10T08:28:38;3.50;72.80
71188;DHT22;58893;53.130;8.158;2022-12-10T08:31:04;3.50;73.70
71188;DHT22;58893;53.130;8.158;2022-12-10T08:33:33;3.50;72.90
71188;DHT22;58893;53.130;8.158;2022-12-10T08:36:00;3.50;72.60
71188;DHT22;58893;53.130;8.158;2022-12-10T08:38:26;3.50;72.60
71188;DHT22;58893;53.130;8.158;2022-12-10T08:40:52;3.50;72.70
71188;DHT22;58893;53.130;8.158;2022-12-10T08:43:18;3.60;72.80
71188;DHT22;58893;53.130;8.158;2022-12-10T08:45:43;3.60;72.80
71188;DHT22;58893;53.130;8.158;2022-12-10T08:48:09;3.60;72.90
71188;DHT22;58893;53.130;8.158;2022-12-10T08:50:36;3.60;72.80
71188;DHT22;58893;53.130;8.158;2022-12-10T08:53:01;3.60;73.00
71188;DHT22;58893;53.130;8.158;2022-12-10T08:55:27;3.60;73.10
71188;DHT22;58893;53.130;8.158;2022-12-10T08:57:53;3.60;73.20
71188;DHT22;58893;53.130;8.158;2022-12-10T09:00:18;3.60;73.40
71188;DHT22;58893;53.130;8.158;2022-12-10T09:02:44;3.60;73.50
71188;DHT22;58893;53.130;8.158;2022-12-10T09:05:10;3.70;73.60
71188;DHT22;58893;53.130;8.158;2022-12-10T09:07:36;3.70;73.70
71188;DHT22;58893;53.130;8.158;2022-12-10T09:10:02;3.70;73.80
71188;DHT22;58893;53.130;8.158;2022-12-10T09:12:28;3.70;73.90
71188;DHT22;58893;53.130;8.158;2022-12-10T09:14:53;3.70;74.10
71188;DHT22;58893;53.130;8.158;2022-12-10T09:17:19;3.70;74.30
71188;DHT22;58893;53.130;8.158;2022-12-10T09:19:45;3.70;74.50
71188;DHT22;58893;53.130;8.158;2022-12-10T09:22:11;3.80;74.70
71188;DHT22;58893;53.130;8.158;2022-12-10T09:24:36;3.80;74.80
71188;DHT22;58893;53.130;8.158;2022-12-10T09:27:02;3.80;74.80
71188;DHT22;58893;53.130;8.158;2022-12-10T09:29:28;3.80;75.40
71188;DHT22;58893;53.130;8.158;2022-12-10T09:31:54;3.90;74.90
71188;DHT22;58893;53.130;8.158;2022-12-10T09:34:20;3.90;74.90
71188;DHT22;58893;53.130;8.158;2022-12-10T09:36:46;3.90;74.80
71188;DHT22;58893;53.130;8.158;2022-12-10T09:39:13;3.90;74.60
71188;DHT22;58893;53.130;8.158;2022-12-10T09:47:18;4.00;74.00
71188;DHT22;58893;53.130;8.158;2022-12-10T09:52:42;4.00;74.10
71188;DHT22;58893;53.130;8.158;2022-12-10T09:55:16;4.00;74.20
71188;DHT22;58893;53.130;8.158;2022-12-10T09:57:50;4.00;74.10
71188;DHT22;58893;53.130;8.158;2022-12-10T10:02:46;4.00;74.00
71188;DHT22;58893;53.130;8.158;2022-12-10T10:05:24;4.00;73.80
71188;DHT22;58893;53.130;8.158;2022-12-10T10:07:55;4.00;73.80
71188;DHT22;58893;53.130;8.158;2022-12-10T10:10:29;4.10;73.90
71188;DHT22;58893;53.130;8.158;2022-12-10T10:13:09;4.10;74.00
71188;DHT22;58893;53.130;8.158;2022-12-10T10:15:41;4.10;74.10
71188;DHT22;58893;53.130;8.158;2022-12-10T10:18:37;4.10;74.00
71188;DHT22;58893;53.130;8.158;2022-12-10T10:21:15;4.10;73.90
71188;DHT22;58893;53.130;8.158;2022-12-10T10:23:45;4.10;73.70
71188;DHT22;58893;53.130;8.158;2022-12-10T10:26:11;4.20;73.60
71188;DHT22;58893;53.130;8.158;2022-12-10T10:28:39;4.20;73.50
71188;DHT22;58893;53.130;8.158;2022-12-10T10:31:20;4.20;73.40
71188;DHT22;58893;53.130;8.158;2022-12-10T10:33:53;4.20;73.40
71188;DHT22;58893;53.130;8.158;2022-12-10T10:36:36;4.20;73.80
71188;DHT22;58893;53.130;8.158;2022-12-10T10:39:25;4.20;73.00
71188;DHT22;58893;53.130;8.158;2022-12-10T10:41:53;4.20;72.90
71188;DHT22;58893;53.130;8.158;2022-12-10T10:44:21;4.30;72.60
71188;DHT22;58893;53.130;8.158;2022-12-10T10:46:49;4.30;72.40
71188;DHT22;58893;53.130;8.158;2022-12-10T10:49:48;4.30;73.00
71188;DHT22;58893;53.130;8.158;2022-12-10T10:52:16;4.30;72.10
71188;DHT22;58893;53.130;8.158;2022-12-10T10:54:46;4.30;72.00
71188;DHT22;58893;53.130;8.158;2022-12-10T10:57:48;4.30;72.20
71188;DHT22;58893;53.130;8.158;2022-12-10T11:00:19;4.30;72.40
71188;DHT22;58893;53.130;8.158;2022-12-10T11:02:47;4.30;72.50
71188;DHT22;58893;53.130;8.158;2022-12-10T11:05:26;4.30;72.60
71188;DHT22;58893;53.130;8.158;2022-12-10T11:08:05;4.40;72.50
71188;DHT22;58893;53.130;8.158;2022-12-10T11:10:33;4.40;72.30
71188;DHT22;58893;53.130;8.158;2022-12-10T11:17:55;4.40;72.50
71188;DHT22;58893;53.130;8.158;2022-12-10T11:20:28;4.40;72.40
71188;DHT22;58893;53.130;8.158;2022-12-10T11:22:57;4.40;72.10
71188;DHT22;58893;53.130;8.158;2022-12-10T11:30:41;4.50;72.20
71188;DHT22;58893;53.130;8.158;2022-12-10T11:33:31;4.50;72.10
71188;DHT22;58893;53.130;8.158;2022-12-10T11:36:22;4.50;72.10
71188;DHT22;58893;53.130;8.158;2022-12-10T11:38:57;4.50;72.00
71188;DHT22;58893;53.130;8.158;2022-12-10T11:41:48;4.60;72.10
71188;DHT22;58893;53.130;8.158;2022-12-10T11:44:54;4.60;72.00
71188;DHT22;58893;53.130;8.158;2022-12-10T12:07:30;4.70;71.30
71188;DHT22;58893;53.130;8.158;2022-12-10T12:13:08;4.70;71.00
71188;DHT22;58893;53.130;8.158;2022-12-10T12:16:26;4.70;71.00
71188;DHT22;58893;53.130;8.158;2022-12-10T12:18:48;4.70;70.90
71188;DHT22;58893;53.130;8.158;2022-12-10T12:21:17;4.70;71.00
71188;DHT22;58893;53.130;8.158;2022-12-10T12:23:54;4.70;71.10
71188;DHT22;58893;53.130;8.158;2022-12-10T12:26:40;4.70;71.10
71188;DHT22;58893;53.130;8.158;2022-12-10T12:29:20;4.70;71.00
71188;DHT22;58893;53.130;8.158;2022-12-10T12:31:54;4.70;71.00
71188;DHT22;58893;53.130;8.158;2022-12-10T12:34:29;4.80;71.00
71188;DHT22;58893;53.130;8.158;2022-12-10T12:36:59;4.80;70.90
71188;DHT22;58893;53.130;8.158;2022-12-10T12:40:10;4.80;70.60
71188;DHT22;58893;53.130;8.158;2022-12-10T12:45:44;4.80;70.50
71188;DHT22;58893;53.130;8.158;2022-12-10T12:48:19;4.80;70.30
71188;DHT22;58893;53.130;8.158;2022-12-10T12:50:55;4.80;70.10
71188;DHT22;58893;53.130;8.158;2022-12-10T12:53:24;4.80;70.10
71188;DHT22;58893;53.130;8.158;2022-12-10T13:03:49;4.80;69.90
71188;DHT22;58893;53.130;8.158;2022-12-10T13:06:17;4.80;69.80
71188;DHT22;58893;53.130;8.158;2022-12-10T13:08:49;4.80;69.50
71188;DHT22;58893;53.130;8.158;2022-12-10T13:11:33;4.80;69.40
71188;DHT22;58893;53.130;8.158;2022-12-10T13:14:12;4.80;69.20
71188;DHT22;58893;53.130;8.158;2022-12-10T13:46:28;4.80;69.40
71188;DHT22;58893;53.130;8.158;2022-12-10T13:48:56;4.80;69.40
71188;DHT22;58893;53.130;8.158;2022-12-10T13:51:35;4.80;69.20
71188;DHT22;58893;53.130;8.158;2022-12-10T13:57:24;4.80;68.90
71188;DHT22;58893;53.130;8.158;2022-12-10T14:00:06;4.80;69.40
71188;DHT22;58893;53.130;8.158;2022-12-10T14:02:57;4.80;68.80
71188;DHT22;58893;53.130;8.158;2022-12-10T14:08:50;4.80;68.70
71188;DHT22;58893;53.130;8.158;2022-12-10T14:11:23;4.70;68.60
71188;DHT22;58893;53.130;8.158;2022-12-10T14:13:54;4.70;68.30
71188;DHT22;58893;53.130;8.158;2022-12-10T14:16:23;4.70;68.30
71188;DHT22;58893;53.130;8.158;2022-12-10T14:18:57;4.70;68.20
71188;DHT22;58893;53.130;8.158;2022-12-10T14:21:23;4.70;68.20
71188;DHT22;58893;53.130;8.158;2022-12-10T14:23:51;4.70;68.10
71188;DHT22;58893;53.130;8.158;2022-12-10T14:26:29;4.70;68.00
71188;DHT22;58893;53.130;8.158;2022-12-10T14:29:08;4.70;68.10
71188;DHT22;58893;53.130;8.158;2022-12-10T14:31:38;4.70;68.10
71188;DHT22;58893;53.130;8.158;2022-12-10T14:34:08;4.70;68.30
71188;DHT22;58893;53.130;8.158;2022-12-10T14:36:47;4.70;68.30
71188;DHT22;58893;53.130;8.158;2022-12-10T14:39:24;4.70;68.40
71188;DHT22;58893;53.130;8.158;2022-12-10T14:41:53;4.60;68.20
71188;DHT22;58893;53.130;8.158;2022-12-10T14:44:20;4.60;68.90
71188;DHT22;58893;53.130;8.158;2022-12-10T14:46:47;4.60;68.30
71188;DHT22;58893;53.130;8.158;2022-12-10T14:49:41;4.60;68.30
71188;DHT22;58893;53.130;8.158;2022-12-10T14:52:15;4.60;68.50
71188;DHT22;58893;53.130;8.158;2022-12-10T14:54:43;4.60;68.50
71188;DHT22;58893;53.130;8.158;2022-12-10T14:57:23;4.60;68.60
71188;DHT22;58893;53.130;8.158;2022-12-10T15:00:09;4.60;68.70
71188;DHT22;58893;53.130;8.158;2022-12-10T15:02:40;4.60;68.90
71188;DHT22;58893;53.130;8.158;2022-12-10T15:05:13;4.60;68.80
71188;DHT22;58893;53.130;8.158;2022-12-10T15:07:40;4.60;68.90
71188;DHT22;58893;53.130;8.158;2022-12-10T15:10:12;4.60;68.90
71188;DHT22;58893;53.130;8.158;2022-12-10T15:12:45;4.60;68.90
71188;DHT22;58893;53.130;8.158;2022-12-10T15:15:29;4.60;69.00
71188;DHT22;58893;53.130;8.158;2022-12-10T15:23:23;4.60;69.00
71188;DHT22;58893;53.130;8.158;2022-12-10T15:28:27;4.60;68.80
71188;DHT22;58893;53.130;8.158;2022-12-10T15:34:05;4.50;68.60
71188;DHT22;58893;53.130;8.158;2022-12-10T15:36:43;4.50;68.60
71188;DHT22;58893;53.130;8.158;2022-12-10T15:39:21;4.50;68.60
71188;DHT22;58893;53.130;8.158;2022-12-10T15:41:49;4.50;68.60
71188;DHT22;58893;53.130;8.158;2022-12-10T15:44:34;4.50;68.50
71188;DHT22;58893;53.130;8.158;2022-12-10T15:47:10;4.60;68.50
71188;DHT22;58893;53.130;8.158;2022-12-10T15:49:38;4.50;68.30
71188;DHT22;58893;53.130;8.158;2022-12-10T15:52:04;4.50;68.20
71188;DHT22;58893;53.130;8.158;2022-12-10T15:54:36;4.50;68.00
71188;DHT22;58893;53.130;8.158;2022-12-10T15:57:20;4.50;68.00
71188;DHT22;58893;53.130;8.158;2022-12-10T15:59:48;4.50;67.90
71188;DHT22;58893;53.130;8.158;2022-12-10T16:05:00;4.50;67.90
71188;DHT22;58893;53.130;8.158;2022-12-10T16:07:26;4.60;68.00
71188;DHT22;58893;53.130;8.158;2022-12-10T16:09:52;4.50;68.10
71188;DHT22;58893;53.130;8.158;2022-12-10T16:12:18;4.50;67.90
71188;DHT22;58893;53.130;8.158;2022-12-10T16:14:53;4.50;67.90
71188;DHT22;58893;53.130;8.158;2022-12-10T16:17:22;4.50;68.30
71188;DHT22;58893;53.130;8.158;2022-12-10T16:19:48;4.50;68.30
71188;DHT22;58893;53.130;8.158;2022-12-10T16:22:13;4.50;69.30
71188;DHT22;58893;53.130;8.158;2022-12-10T16:24:39;4.50;68.20
71188;DHT22;58893;53.130;8.158;2022-12-10T16:27:15;4.50;67.90
71188;DHT22;58893;53.130;8.158;2022-12-10T16:29:43;4.50;67.80
71188;DHT22;58893;53.130;8.158;2022-12-10T16:32:10;4.50;67.80
71188;DHT22;58893;53.130;8.158;2022-12-10T16:34:36;4.50;67.70
71188;DHT22;58893;53.130;8.158;2022-12-10T16:37:03;4.50;67.50
71188;DHT22;58893;53.130;8.158;2022-12-10T16:39:29;4.50;67.50
71188;DHT22;58893;53.130;8.158;2022-12-10T16:41:54;4.50;67.50
71188;DHT22;58893;53.130;8.158;2022-12-10T16:44:20;4.50;68.10
71188;DHT22;58893;53.130;8.158;2022-12-10T16:46:46;4.50;70.50
71188;DHT22;58893;53.130;8.158;2022-12-10T16:49:11;4.50;67.40
71188;DHT22;58893;53.130;8.158;2022-12-10T16:51:37;4.50;68.20
71188;DHT22;58893;53.130;8.158;2022-12-10T16:54:04;4.50;67.20
71188;DHT22;58893;53.130;8.158;2022-12-10T16:56:30;4.50;67.50
71188;DHT22;58893;53.130;8.158;2022-12-10T16:58:56;4.50;67.20
71188;DHT22;58893;53.130;8.158;2022-12-10T17:01:27;4.50;67.20
71188;DHT22;58893;53.130;8.158;2022-12-10T17:03:53;4.50;67.30
71188;DHT22;58893;53.130;8.158;2022-12-10T17:06:20;4.50;67.20
71188;DHT22;58893;53.130;8.158;2022-12-10T17:08:46;4.50;67.40
71188;DHT22;58893;53.130;8.158;2022-12-10T17:11:17;4.50;67.50
71188;DHT22;58893;53.130;8.158;2022-12-10T17:14:02;4.50;67.70
71188;DHT22;58893;53.130;8.158;2022-12-10T17:16:28;4.50;67.40
71188;DHT22;58893;53.130;8.158;2022-12-10T17:18:54;4.50;67.20
71188;DHT22;58893;53.130;8.158;2022-12-10T17:21:20;4.50;67.10
71188;DHT22;58893;53.130;8.158;2022-12-10T17:23:46;4.50;67.20
71188;DHT22;58893;53.130;8.158;2022-12-10T17:26:39;4.50;67.20
71188;DHT22;58893;53.130;8.158;2022-12-10T17:29:15;4.50;67.20
71188;DHT22;58893;53.130;8.158;2022-12-10T17:31:41;4.50;67.20
71188;DHT22;58893;53.130;8.158;2022-12-10T17:34:09;4.50;67.30
71188;DHT22;58893;53.130;8.158;2022-12-10T17:36:35;4.50;67.50
71188;DHT22;58893;53.130;8.158;2022-12-10T17:39:00;4.50;67.90
71188;DHT22;58893;53.130;8.158;2022-12-10T17:41:26;4.50;68.20
71188;DHT22;58893;53.130;8.158;2022-12-10T17:43:51;4.50;68.10
71188;DHT22;58893;53.130;8.158;2022-12-10T17:46:21;4.50;67.90
71188;DHT22;58893;53.130;8.158;2022-12-10T17:48:47;4.50;67.90
71188;DHT22;58893;53.130;8.158;2022-12-10T17:51:13;4.50;67.80
71188;DHT22;58893;53.130;8.158;2022-12-10T17:53:39;4.50;67.70
71188;DHT22;58893;53.130;8.158;2022-12-10T17:56:18;4.50;67.80
71188;DHT22;58893;53.130;8.158;2022-12-10T17:58:45;4.50;71.00
71188;DHT22;58893;53.130;8.158;2022-12-10T18:01:11;4.50;68.20
71188;DHT22;58893;53.130;8.158;2022-12-10T18:03:37;4.40;68.20
71188;DHT22;58893;53.130;8.158;2022-12-10T18:06:08;4.50;67.30
71188;DHT22;58893;53.130;8.158;2022-12-10T18:08:35;4.50;67.30
71188;DHT22;58893;53.130;8.158;2022-12-10T18:11:01;4.40;67.20
71188;DHT22;58893;53.130;8.158;2022-12-10T18:13:26;4.40;67.30
71188;DHT22;58893;53.130;8.158;2022-12-10T18:15:52;4.40;67.20
71188;DHT22;58893;53.130;8.158;2022-12-10T18:18:18;4.40;67.20